Time;durP1;ratioP1;P1;durP2;ratioP2;P2;SDS_P1;SDS_P2;PMS_P1;PMS_P2;Temp;Humidity;BMP_temperature;BMP_pressure;BME280_temperature;BME280_humidity;BME280_pressure;Samples;Min_cycle;Max_cycle;Signal;HPM_P1;HPM_P2
2023/06/07 00:01:33;;;;;;;45.80;31.48;;;;;;;23.64;81.63;98007.03;4969574;28;20109;-61
2023/06/07 00:04:03;;;;;;;46.22;30.73;;;;;;;23.60;81.86;98006.00;4968710;28;20591;-64
2023/06/07 00:06:32;;;;;;;50.28;31.20;;;;;;;23.59;82.41;98021.41;4969719;28;20054;-62
2023/06/07 00:09:02;;;;;;;46.75;31.48;;;;;;;23.57;82.66;98020.13;4964876;28;20042;-64
2023/06/07 00:11:31;;;;;;;49.58;32.67;;;;;;;23.48;83.04;98032.69;4969625;28;20913;-60
2023/06/07 00:14:03;;;;;;;46.42;30.80;;;;;;;23.52;82.47;98028.28;4968980;28;20713;-60
2023/06/07 00:16:35;;;;;;;40.58;31.33;;;;;;;23.57;83.80;98033.63;4969143;28;20047;-61
2023/06/07 00:19:06;;;;;;;49.50;31.80;;;;;;;23.61;82.81;98031.94;4969294;28;20043;-61
2023/06/07 00:21:36;;;;;;;42.05;29.35;;;;;;;23.70;82.64;98028.28;4968776;28;20055;-61
2023/06/07 00:24:06;;;;;;;43.88;30.92;;;;;;;23.79;82.87;98035.72;4965760;28;20063;-61
2023/06/07 00:26:35;;;;;;;42.45;30.98;;;;;;;23.82;82.91;98027.81;4967319;28;20419;-61
2023/06/07 00:29:05;;;;;;;40.67;29.95;;;;;;;23.79;82.59;98033.03;4959893;28;20522;-61
2023/06/07 00:31:35;;;;;;;46.75;30.88;;;;;;;23.75;82.93;98032.81;4968057;28;20046;-61
2023/06/07 00:34:05;;;;;;;48.17;30.27;;;;;;;23.80;83.12;98035.44;4959981;28;20046;-61
2023/06/07 00:36:37;;;;;;;;;;;;;;;23.83;83.66;98026.75;4960089;28;20047;-61
2023/06/07 00:39:09;;;;;;;43.28;29.58;;;;;;;23.83;83.60;98021.31;4959083;28;20016;-60
2023/06/07 00:41:38;;;;;;;47.42;31.55;;;;;;;23.89;83.57;98020.16;4956027;28;20660;-62
2023/06/07 00:44:07;;;;;;;44.28;30.33;;;;;;;23.84;83.94;98020.25;4968341;28;20054;-62
2023/06/07 00:46:37;;;;;;;48.72;30.27;;;;;;;23.81;84.26;98015.41;4945653;28;20074;-61
2023/06/07 00:49:07;;;;;;;44.72;30.55;;;;;;;23.75;84.78;98016.59;4957708;28;20166;-62
2023/06/07 00:51:37;;;;;;;44.17;31.77;;;;;;;23.85;84.20;98024.56;4954668;28;20466;-60
2023/06/07 00:54:07;;;;;;;43.78;29.67;;;;;;;23.84;84.44;98028.34;4953598;28;20053;-60
2023/06/07 00:56:36;;;;;;;43.80;31.02;;;;;;;23.82;85.17;98051.38;4961870;28;20546;-60
2023/06/07 00:59:06;;;;;;;50.80;31.50;;;;;;;23.92;85.01;98051.22;4958141;28;20061;-61
2023/06/07 01:01:35;;;;;;;48.95;30.48;;;;;;;23.93;83.82;98069.06;4960656;28;20128;-60
2023/06/07 01:04:05;;;;;;;47.85;31.77;;;;;;;24.05;85.64;98070.22;4957015;28;20113;-60
2023/06/07 01:06:37;;;;;;;50.22;32.40;;;;;;;24.13;84.62;98077.66;4968539;28;20058;-60
2023/06/07 01:09:12;;;;;;;51.45;31.40;;;;;;;24.13;84.88;98085.75;4963602;28;20487;-60
2023/06/07 01:11:45;;;;;;;54.92;31.52;;;;;;;24.14;85.29;98087.38;4963484;28;20047;-60
2023/06/07 01:14:16;;;;;;;56.38;31.88;;;;;;;24.21;84.28;98094.34;4953740;28;20066;-60
2023/06/07 01:16:50;;;;;;;59.45;31.20;;;;;;;24.27;85.18;98087.75;4967836;28;20125;-60
2023/06/07 01:19:22;;;;;;;56.67;31.92;;;;;;;24.35;84.86;98095.19;4955001;28;20086;-60
2023/06/07 01:21:59;;;;;;;59.50;33.50;;;;;;;24.32;84.61;98091.19;4967659;28;20053;-61
2023/06/07 01:24:30;;;;;;;59.72;31.75;;;;;;;24.35;83.07;98093.28;4956792;28;20156;-60
2023/06/07 01:27:02;;;;;;;58.20;34.72;;;;;;;24.50;84.17;98092.22;4968495;28;20130;-60
2023/06/07 01:29:31;;;;;;;56.00;32.78;;;;;;;24.58;84.37;98092.34;4965360;28;20058;-61
2023/06/07 01:32:06;;;;;;;60.57;32.30;;;;;;;24.53;84.52;98084.31;4958643;28;20642;-59
2023/06/07 01:34:36;;;;;;;58.97;33.90;;;;;;;24.46;83.67;98086.59;4958902;28;20053;-59
2023/06/07 01:37:07;;;;;;;54.20;33.42;;;;;;;24.48;83.98;98087.09;4967373;28;20491;-60
2023/06/07 01:39:40;;;;;;;52.33;31.55;;;;;;;24.52;83.52;98092.72;4967306;28;20054;-60
2023/06/07 01:42:10;;;;;;;54.42;33.25;;;;;;;24.54;83.91;98096.75;4958699;28;20043;-61
2023/06/07 01:44:41;;;;;;;54.50;32.10;;;;;;;24.65;83.81;98102.78;4954590;28;20055;-61
2023/06/07 01:47:12;;;;;;;53.67;32.00;;;;;;;24.65;83.79;98116.31;4958386;28;20471;-60
2023/06/07 01:49:43;;;;;;;52.00;31.70;;;;;;;24.62;84.22;98122.34;4958724;28;20130;-60
2023/06/07 01:52:13;;;;;;;54.85;31.05;;;;;;;24.67;84.00;98135.78;4957734;28;20046;-60
2023/06/07 01:54:44;;;;;;;45.67;29.30;;;;;;;24.68;82.79;98142.81;4954944;28;20050;-61
2023/06/07 01:57:16;;;;;;;44.15;28.13;;;;;;;24.75;80.65;98140.50;4942255;28;20042;-61
2023/06/07 02:00:01;;;;;;;;;;;;;;;24.85;80.27;98147.66;4959778;28;20047;-61
2023/06/07 02:03:08;;;;;;;41.92;27.30;;;;;;;24.90;80.66;98156.53;4966816;28;19942;-60
2023/06/07 02:05:41;;;;;;;40.13;25.90;;;;;;;24.91;79.26;98174.41;4956131;28;20154;-60
2023/06/07 02:08:24;;;;;;;36.03;24.58;;;;;;;24.95;78.97;98185.44;4958327;28;20050;-60
2023/06/07 02:10:55;;;;;;;38.58;24.10;;;;;;;24.92;77.85;98211.22;4953121;28;20039;-60
2023/06/07 02:13:27;;;;;;;44.47;26.80;;;;;;;24.83;78.46;98206.75;4954947;28;20894;-60
2023/06/07 02:15:57;;;;;;;47.25;26.90;;;;;;;24.91;78.32;98219.66;4963703;28;20043;-60
2023/06/07 02:18:26;;;;;;;38.65;26.30;;;;;;;24.88;78.02;98231.88;4966662;28;20086;-61
2023/06/07 02:20:55;;;;;;;41.22;26.70;;;;;;;24.90;78.21;98232.41;4957634;28;20174;-60
2023/06/07 02:23:24;;;;;;;45.13;29.42;;;;;;;24.80;78.20;98239.84;4958027;28;20051;-61
2023/06/07 02:25:55;;;;;;;42.58;27.60;;;;;;;24.92;77.43;98237.50;4957415;28;20573;-60
2023/06/07 02:28:24;;;;;;;40.67;26.05;;;;;;;25.07;77.43;98228.31;4951237;28;20050;-61
2023/06/07 02:30:58;;;;;;;40.38;26.10;;;;;;;25.23;77.20;98238.59;4957913;28;20064;-61
2023/06/07 02:33:27;;;;;;;;;;;;;;;25.55;76.48;98235.03;4960573;28;20050;-61
2023/06/07 02:35:56;;;;;;;32.42;23.55;;;;;;;26.04;75.79;98239.72;4966676;28;19922;-61
2023/06/07 02:38:25;;;;;;;31.98;22.73;;;;;;;26.45;72.17;98255.16;4955697;28;20058;-60
2023/06/07 02:40:55;;;;;;;32.05;21.60;;;;;;;26.69;68.64;98255.66;4960165;28;20423;-60
2023/06/07 02:43:25;;;;;;;28.98;19.73;;;;;;;26.95;67.46;98258.63;4962420;28;20087;-61
2023/06/07 02:45:55;;;;;;;30.90;20.23;;;;;;;26.93;66.77;98261.63;4950377;28;20444;-61
2023/06/07 02:48:24;;;;;;;25.67;19.35;;;;;;;27.10;66.33;98258.22;4965850;28;20053;-61
2023/06/07 02:50:54;;;;;;;24.75;16.90;;;;;;;26.96;66.63;98279.22;4941243;28;20723;-61
2023/06/07 02:53:26;;;;;;;28.63;18.33;;;;;;;26.68;66.00;98276.63;4953619;28;20057;-62
2023/06/07 02:55:55;;;;;;;28.55;18.08;;;;;;;26.64;66.03;98274.81;4958038;28;20395;-62
2023/06/07 02:58:25;;;;;;;24.88;17.13;;;;;;;26.91;66.83;98277.44;4954324;28;20130;-61
2023/06/07 03:00:55;;;;;;;24.92;17.50;;;;;;;27.05;65.51;98282.81;4953999;28;20137;-61
2023/06/07 03:03:25;;;;;;;29.05;16.70;;;;;;;26.97;64.57;98273.50;4936439;28;20051;-61
2023/06/07 03:06:07;;;;;;;26.35;15.95;;;;;;;27.34;64.61;98266.84;4954620;28;20072;-63
2023/06/07 03:08:39;;;;;;;22.80;14.13;;;;;;;27.34;63.79;98271.50;4952566;28;20370;-61
2023/06/07 03:11:12;;;;;;;18.17;13.20;;;;;;;27.36;62.60;98278.22;4957472;28;20391;-62
2023/06/07 03:13:47;;;;;;;18.42;13.48;;;;;;;27.60;62.05;98284.13;4955658;28;20133;-62
2023/06/07 03:16:22;;;;;;;16.55;11.75;;;;;;;27.83;59.92;98281.34;4956854;28;20054;-62
2023/06/07 03:18:56;;;;;;;18.10;11.57;;;;;;;28.27;61.98;98272.19;4942462;28;20046;-61
2023/06/07 03:21:27;;;;;;;16.52;11.57;;;;;;;28.51;59.19;98269.78;4959107;28;20071;-61
2023/06/07 03:24:01;;;;;;;21.30;10.77;;;;;;;28.87;58.15;98270.31;4942897;28;20047;-61
2023/06/07 03:26:32;;;;;;;13.05;8.85;;;;;;;29.30;54.60;98262.06;4973476;28;20055;-62
2023/06/07 03:29:02;;;;;;;14.25;8.27;;;;;;;29.63;54.84;98256.81;4942367;28;20057;-61
2023/06/07 03:31:35;;;;;;;;;;;;;;;29.59;54.70;98258.63;4956974;28;20058;-62
2023/06/07 03:34:08;;;;;;;9.90;7.20;;;;;;;29.72;54.83;98260.31;4957360;28;20009;-61
2023/06/07 03:36:40;;;;;;;10.18;6.80;;;;;;;29.67;53.01;98248.78;4966657;28;20142;-61
2023/06/07 03:39:13;;;;;;;11.82;6.93;;;;;;;29.91;52.49;98248.22;4937845;28;20487;-62
2023/06/07 03:41:43;;;;;;;9.20;5.30;;;;;;;29.22;52.47;98262.06;4971912;28;20062;-61
2023/06/07 03:44:17;;;;;;;12.05;6.60;;;;;;;28.82;53.55;98256.03;4939154;28;20142;-63
2023/06/07 03:46:46;;;;;;;8.82;5.45;;;;;;;28.99;55.67;98250.56;4954401;28;20134;-61
2023/06/07 03:49:16;;;;;;;8.65;6.30;;;;;;;29.05;53.97;98253.91;4960184;28;20038;-59
2023/06/07 03:51:45;;;;;;;12.10;5.88;;;;;;;28.40;55.11;98255.69;4952892;28;20043;-60
2023/06/07 03:54:16;;;;;;;9.98;5.30;;;;;;;28.58;55.00;98257.31;4943468;28;20047;-61
2023/06/07 03:56:45;;;;;;;9.95;5.53;;;;;;;28.52;56.45;98255.88;4957537;28;20070;-61
2023/06/07 03:59:15;;;;;;;6.18;5.15;;;;;;;27.87;54.83;98263.25;4951240;28;20497;-60
2023/06/07 04:01:45;;;;;;;9.95;5.10;;;;;;;27.80;56.02;98258.25;4963109;28;20051;-60
2023/06/07 04:04:15;;;;;;;10.45;5.32;;;;;;;28.06;54.68;98261.03;4959010;28;20490;-60
2023/06/07 04:06:44;;;;;;;9.35;4.85;;;;;;;28.17;54.03;98259.69;4960349;28;20066;-61
2023/06/07 04:09:18;;;;;;;11.80;5.20;;;;;;;28.65;53.72;98267.72;4951977;28;20133;-60
2023/06/07 04:11:48;;;;;;;8.90;5.03;;;;;;;28.96;52.50;98279.28;4961002;28;20070;-61
2023/06/07 04:14:18;;;;;;;11.38;5.93;;;;;;;28.91;52.13;98282.16;4958527;28;20109;-62
2023/06/07 04:16:47;;;;;;;8.40;4.45;;;;;;;28.90;50.43;98275.09;4955053;28;20069;-62
2023/06/07 04:19:17;;;;;;;5.47;3.58;;;;;;;28.66;50.02;98287.59;4959735;28;20057;-63
2023/06/07 04:21:47;;;;;;;8.20;3.08;;;;;;;28.38;49.37;98268.03;4952824;28;20121;-62
2023/06/07 04:24:18;;;;;;;6.68;2.97;;;;;;;29.01;48.80;98257.31;4962324;28;20046;-61
2023/06/07 04:26:49;;;;;;;5.22;3.50;;;;;;;29.68;49.22;98253.91;4958302;28;20039;-60
2023/06/07 04:29:21;;;;;;;8.63;3.00;;;;;;;29.71;48.41;98249.72;4951667;28;20057;-60
2023/06/07 04:31:52;;;;;;;5.85;2.60;;;;;;;29.84;46.92;98245.97;4966941;28;20135;-60
2023/06/07 04:34:22;;;;;;;4.13;2.60;;;;;;;30.34;45.85;98244.06;4955323;28;20067;-61
2023/06/07 04:36:53;;;;;;;6.53;2.92;;;;;;;30.19;44.66;98246.59;4963245;28;20133;-61
2023/06/07 04:39:24;;;;;;;5.15;2.63;;;;;;;30.20;44.80;98235.34;4960926;28;20055;-61
2023/06/07 04:41:54;;;;;;;6.13;2.53;;;;;;;30.59;45.42;98236.81;4966619;28;20046;-62
2023/06/07 04:44:28;;;;;;;6.35;2.47;;;;;;;31.11;45.16;98228.94;4956151;28;20042;-61
2023/06/07 04:47:05;;;;;;;8.75;2.70;;;;;;;31.24;44.98;98239.94;4963169;28;20061;-64
2023/06/07 04:49:40;;;;;;;4.68;2.67;;;;;;;30.40;44.71;98243.88;4942507;28;20842;-63
2023/06/07 04:52:12;;;;;;;4.85;2.65;;;;;;;29.93;46.61;98245.94;4960173;28;20109;-63
2023/06/07 04:54:46;;;;;;;7.97;2.78;;;;;;;30.22;45.03;98237.75;4960903;28;20053;-62
2023/06/07 04:57:18;;;;;;;6.22;2.42;;;;;;;30.31;46.51;98231.09;4952851;28;20077;-65
2023/06/07 04:59:51;;;;;;;9.68;2.67;;;;;;;30.22;45.87;98246.75;4958858;28;20137;-62
2023/06/07 05:02:30;;;;;;;5.43;2.72;;;;;;;30.33;46.82;98247.13;4968202;28;20379;-63
2023/06/07 05:05:00;;;;;;;9.43;3.15;;;;;;;30.29;48.41;98249.72;4960021;28;20928;-63
2023/06/07 05:07:32;;;;;;;5.18;2.55;;;;;;;30.29;48.05;98246.19;4955839;28;20042;-63
2023/06/07 05:10:06;;;;;;;8.75;2.60;;;;;;;30.12;48.70;98255.31;4962552;28;20573;-63
2023/06/07 05:12:38;;;;;;;8.05;3.55;;;;;;;30.31;48.30;98247.47;4954826;28;20047;-64
2023/06/07 05:15:10;;;;;;;5.03;2.92;;;;;;;30.58;46.62;98245.38;4956417;28;20065;-62
2023/06/07 05:17:45;;;;;;;7.90;2.55;;;;;;;30.22;45.90;98249.47;4954486;28;20070;-62
2023/06/07 05:20:16;;;;;;;9.65;2.75;;;;;;;30.25;47.90;98250.72;4953579;28;20530;-63
2023/06/07 05:22:45;;;;;;;9.20;2.90;;;;;;;30.40;48.47;98252.88;4943836;28;20055;-66
2023/06/07 05:25:16;;;;;;;10.50;2.65;;;;;;;30.09;46.73;98255.19;4948711;28;20064;-65
2023/06/07 05:27:48;;;;;;;4.15;2.60;;;;;;;30.34;47.01;98260.47;4951816;28;20542;-65
2023/06/07 05:30:40;;;;;;;4.40;2.85;;;;;;;30.55;47.69;98248.75;4972720;28;20050;-61
2023/06/07 05:33:10;;;;;;;10.38;2.90;;;;;;;30.87;49.83;98245.28;4951383;28;20098;-63
2023/06/07 05:35:44;;;;;;;7.55;2.53;;;;;;;30.51;51.01;98251.38;4955909;28;20077;-68
2023/06/07 05:38:22;;;;;;;3.13;2.22;;;;;;;30.24;50.57;98249.94;4952145;28;20054;-66
2023/06/07 05:40:52;;;;;;;2.60;2.38;;;;;;;30.26;51.20;98257.81;4960012;28;20081;-63
2023/06/07 05:43:22;;;;;;;3.90;2.13;;;;;;;30.31;48.89;98247.47;4956550;28;20538;-64
2023/06/07 05:45:53;;;;;;;6.43;2.13;;;;;;;30.65;46.93;98240.16;4959122;28;20043;-64
2023/06/07 05:48:22;;;;;;;4.03;1.98;;;;;;;30.59;47.08;98238.75;4957627;28;20066;-69
2023/06/07 05:50:54;;;;;;;6.85;1.83;;;;;;;30.30;48.21;98237.69;4958353;28;20057;-66
2023/06/07 05:53:24;;;;;;;3.60;1.83;;;;;;;30.29;48.83;98222.41;4963644;28;20047;-65
2023/06/07 05:55:53;;;;;;;3.95;1.92;;;;;;;30.06;50.49;98237.50;4957910;28;20047;-67
2023/06/07 05:58:23;;;;;;;3.40;1.70;;;;;;;29.80;50.42;98228.63;4937609;28;20479;-64
2023/06/07 06:00:54;;;;;;;5.10;1.60;;;;;;;29.89;50.00;98230.22;4969196;28;20038;-62
2023/06/07 06:03:23;;;;;;;5.85;1.90;;;;;;;29.87;50.35;98231.66;4945944;28;20046;-63
2023/06/07 06:05:57;;;;;;;6.25;1.60;;;;;;;29.95;50.12;98239.03;4975222;28;20078;-62
2023/06/07 06:08:27;;;;;;;4.15;1.60;;;;;;;29.97;47.42;98244.16;4975979;28;20058;-64
2023/06/07 06:10:56;;;;;;;4.55;1.48;;;;;;;29.99;48.72;98239.97;4953795;28;20042;-61
2023/06/07 06:13:25;;;;;;;2.28;1.40;;;;;;;29.52;49.25;98241.94;4948103;28;20142;-65
2023/06/07 06:15:55;;;;;;;3.42;1.70;;;;;;;29.44;46.95;98242.75;4964074;28;20050;-61
2023/06/07 06:18:24;;;;;;;4.47;1.50;;;;;;;29.21;48.90;98242.16;4973306;28;20070;-64
2023/06/07 06:20:53;;;;;;;4.03;1.88;;;;;;;29.00;49.79;98241.25;4971399;28;20126;-66
2023/06/07 06:23:23;;;;;;;4.55;1.70;;;;;;;28.79;48.80;98243.06;4956152;28;20042;-66
2023/06/07 06:25:53;;;;;;;3.45;1.70;;;;;;;28.61;49.54;98233.25;4957036;28;20070;-63
2023/06/07 06:28:22;;;;;;;3.28;1.58;;;;;;;28.76;51.19;98232.81;4951292;28;20061;-66
2023/06/07 06:30:52;;;;;;;4.28;2.10;;;;;;;28.98;50.00;98240.78;4968090;28;20081;-71
2023/06/07 06:33:21;;;;;;;4.55;1.88;;;;;;;29.08;50.65;98243.16;4972107;28;20101;-62
2023/06/07 06:35:53;;;;;;;4.70;2.00;;;;;;;29.34;49.98;98246.66;4973838;28;20058;-64
2023/06/07 06:38:22;;;;;;;6.07;2.53;;;;;;;29.21;50.25;98241.38;4956987;28;20796;-62
2023/06/07 06:40:52;;;;;;;5.07;1.88;;;;;;;29.30;50.70;98242.97;4958292;28;20054;-63
2023/06/07 06:43:21;;;;;;;6.93;2.13;;;;;;;29.34;46.48;98240.41;4952110;28;20138;-65
2023/06/07 06:45:56;;;;;;;5.75;1.80;;;;;;;29.27;48.64;98240.88;4936032;28;20050;-67
2023/06/07 06:48:27;;;;;;;5.25;1.80;;;;;;;29.09;50.55;98235.78;4966253;28;20046;-68
2023/06/07 06:50:57;;;;;;;4.82;1.83;;;;;;;28.92;51.25;98244.81;4959652;28;20066;-66
2023/06/07 06:53:27;;;;;;;7.13;2.50;;;;;;;28.98;52.54;98249.78;4943776;28;20062;-64
2023/06/07 06:55:56;;;;;;;4.95;2.00;;;;;;;29.00;52.28;98252.97;4945359;28;20750;-66
2023/06/07 06:58:26;;;;;;;3.92;2.10;;;;;;;29.04;53.61;98239.47;4946062;28;20101;-66
2023/06/07 07:00:56;;;;;;;4.45;2.38;;;;;;;29.10;51.73;98231.94;4939569;28;20052;-63
2023/06/07 07:03:26;;;;;;;7.63;3.17;;;;;;;28.90;53.43;98241.63;4946875;28;20047;-62
2023/06/07 07:05:56;;;;;;;4.68;3.10;;;;;;;28.98;50.48;98243.53;4947304;28;20063;-67
2023/06/07 07:08:25;;;;;;;9.02;4.45;;;;;;;28.94;52.28;98242.56;4947001;28;20145;-62
2023/06/07 07:10:55;;;;;;;13.35;5.32;;;;;;;28.95;53.93;98236.78;4947947;28;20464;-65
2023/06/07 07:13:26;;;;;;;12.70;6.70;;;;;;;28.92;54.18;98239.34;4952025;28;20047;-66
2023/06/07 07:15:55;;;;;;;12.23;5.18;;;;;;;29.03;52.92;98230.50;4945218;28;20041;-64
2023/06/07 07:18:25;;;;;;;9.05;3.67;;;;;;;29.11;54.26;98225.38;4948068;28;20388;-63
2023/06/07 07:20:54;;;;;;;5.50;2.15;;;;;;;29.16;54.99;98228.72;4946784;28;20065;-64
2023/06/07 07:23:24;;;;;;;5.43;2.30;;;;;;;29.03;55.60;98235.19;4949644;28;20062;-64
2023/06/07 07:25:54;;;;;;;4.05;2.47;;;;;;;29.04;56.39;98225.84;4957153;28;20357;-67
2023/06/07 07:28:23;;;;;;;7.32;2.72;;;;;;;29.16;56.78;98226.00;4958541;28;20067;-64
2023/06/07 07:30:52;;;;;;;4.60;2.58;;;;;;;29.21;56.46;98225.78;4956443;28;20132;-65
2023/06/07 07:33:22;;;;;;;5.63;2.85;;;;;;;29.23;57.02;98209.91;4948856;28;20058;-67
2023/06/07 07:35:52;;;;;;;9.70;3.67;;;;;;;29.16;55.93;98203.38;4955210;28;20426;-63
2023/06/07 07:38:21;;;;;;;12.90;4.47;;;;;;;29.12;54.89;98203.19;4955370;28;20076;-65
2023/06/07 07:40:51;;;;;;;9.68;5.03;;;;;;;29.06;54.63;98188.16;4960133;28;20057;-65
2023/06/07 07:43:21;;;;;;;10.48;4.78;;;;;;;29.19;53.18;98183.63;4954056;28;20059;-62
2023/06/07 07:45:50;;;;;;;8.13;4.32;;;;;;;29.13;53.64;98182.97;4950198;28;20061;-64
2023/06/07 07:48:19;;;;;;;10.50;2.90;;;;;;;29.30;52.60;98177.50;4947873;28;20051;-64
2023/06/07 07:50:49;;;;;;;4.28;2.50;;;;;;;29.29;52.33;98167.72;4949692;28;20115;-65
2023/06/07 07:53:18;;;;;;;5.40;1.83;;;;;;;29.26;51.98;98162.88;4963514;28;20043;-68
2023/06/07 07:55:48;;;;;;;2.75;1.55;;;;;;;29.40;48.91;98166.22;4965143;28;20542;-67
2023/06/07 07:58:26;;;;;;;2.10;1.00;;;;;;;29.51;48.84;98163.94;4621089;28;10000168;-62
2023/06/07 08:00:56;;;;;;;5.35;1.30;;;;;;;29.50;48.37;98161.53;4970803;28;20054;-62
2023/06/07 08:03:25;;;;;;;5.45;1.20;;;;;;;29.54;46.05;98162.47;4966419;28;20764;-59
2023/06/07 08:05:55;;;;;;;1.45;1.00;;;;;;;29.17;48.23;98158.56;4967438;28;20087;-60
2023/06/07 08:08:25;;;;;;;32.33;4.47;;;;;;;29.05;46.95;98158.47;4967078;28;20046;-61
2023/06/07 08:10:54;;;;;;;16.75;1.83;;;;;;;28.97;49.75;98149.19;4967147;28;20321;-63
2023/06/07 08:13:23;;;;;;;4.43;1.38;;;;;;;28.84;49.87;98145.56;4954620;28;20214;-61
2023/06/07 08:15:53;;;;;;;5.75;1.10;;;;;;;29.05;49.57;98142.09;4966924;28;20053;-64
2023/06/07 08:18:22;;;;;;;3.70;1.50;;;;;;;29.00;48.99;98146.63;4965988;28;20117;-64
2023/06/07 08:20:52;;;;;;;5.90;1.42;;;;;;;28.85;48.23;98143.63;4972797;28;20054;-63
2023/06/07 08:23:21;;;;;;;2.55;1.30;;;;;;;28.90;49.11;98141.50;4963934;28;20047;-63
2023/06/07 08:25:52;;;;;;;6.00;1.63;;;;;;;28.84;49.51;98133.84;4960921;28;20047;-62
2023/06/07 08:28:22;;;;;;;3.67;1.33;;;;;;;29.00;49.07;98143.88;4965977;28;20066;-64
2023/06/07 08:30:52;;;;;;;4.28;1.52;;;;;;;29.07;47.38;98137.94;4966870;28;20047;-62
2023/06/07 08:33:21;;;;;;;2.63;1.20;;;;;;;28.94;47.26;98134.28;4963688;28;20042;-62
2023/06/07 08:35:52;;;;;;;3.28;1.42;;;;;;;28.71;48.88;98141.09;4966434;28;20051;-61
2023/06/07 08:38:21;;;;;;;6.63;1.63;;;;;;;28.74;48.27;98143.16;4966211;28;20145;-61
2023/06/07 08:40:58;;;;;;;3.22;1.58;;;;;;;28.77;50.01;98137.06;4962520;28;20043;-62
2023/06/07 08:43:30;;;;;;;2.90;1.58;;;;;;;28.77;49.94;98128.06;4948733;28;20049;-62
2023/06/07 08:46:05;;;;;;;2.28;1.85;;;;;;;28.68;49.97;98127.28;4966529;28;20050;-62
2023/06/07 08:48:36;;;;;;;2.80;1.30;;;;;;;28.76;47.29;98123.78;4966219;28;20124;-62
2023/06/07 08:51:08;;;;;;;2.75;1.23;;;;;;;28.65;47.29;98134.19;4963121;28;20145;-61
2023/06/07 08:53:48;;;;;;;2.28;1.55;;;;;;;28.79;49.13;98126.66;4956352;28;20054;-61
2023/06/07 08:56:19;;;;;;;3.60;1.58;;;;;;;28.69;50.62;98120.69;4965632;28;20149;-62
2023/06/07 08:58:50;;;;;;;3.08;1.30;;;;;;;28.72;50.45;98110.00;4968532;28;20542;-63
2023/06/07 09:01:21;;;;;;;2.42;1.50;;;;;;;28.76;51.58;98094.59;4966110;28;20053;-61
2023/06/07 09:03:54;;;;;;;11.02;1.70;;;;;;;28.97;50.53;98095.47;4956388;28;20047;-62
2023/06/07 09:06:24;;;;;;;7.63;2.08;;;;;;;28.87;51.31;98100.47;4967181;28;20058;-62
2023/06/07 09:08:54;;;;;;;6.80;1.75;;;;;;;28.92;51.34;98103.03;4964982;28;20047;-64
2023/06/07 09:11:23;;;;;;;4.80;1.60;;;;;;;28.82;51.27;98092.47;4958107;28;20038;-62
2023/06/07 09:13:56;;;;;;;5.63;1.70;;;;;;;28.76;51.74;98091.06;4967599;28;20030;-62
2023/06/07 09:16:25;;;;;;;;;;;;;;;29.06;49.01;98091.91;4968603;28;20125;-62
2023/06/07 09:18:55;;;;;;;2.40;1.63;;;;;;;28.90;48.56;98086.97;4942582;28;19989;-62
2023/06/07 09:21:26;;;;;;;4.05;2.33;;;;;;;28.85;50.68;98086.38;4957708;28;20390;-62
2023/06/07 09:23:59;;;;;;;6.32;2.33;;;;;;;28.59;51.83;98081.75;4962667;28;20088;-62
2023/06/07 09:26:37;;;;;;;7.03;2.88;;;;;;;28.59;52.63;98079.03;4966806;28;20046;-63
2023/06/07 09:29:09;;;;;;;3.80;2.38;;;;;;;28.53;53.11;98085.81;4967110;28;20042;-62
2023/06/07 09:31:41;;;;;;;5.20;2.08;;;;;;;28.88;50.57;98069.34;4964236;28;20145;-63
2023/06/07 09:34:23;;;;;;;7.07;3.10;;;;;;;30.04;43.29;98062.25;4963409;28;20356;-64
2023/06/07 09:36:57;;;;;;;5.80;2.95;;;;;;;30.42;44.85;98061.22;4965966;28;20054;-63
2023/06/07 09:39:29;;;;;;;4.43;2.95;;;;;;;30.52;43.90;98055.38;4962970;28;20066;-62
2023/06/07 09:41:59;;;;;;;4.13;2.47;;;;;;;30.87;42.72;98059.28;4966277;28;20051;-64
2023/06/07 09:44:30;;;;;;;5.43;1.98;;;;;;;31.09;39.30;98053.41;4963198;28;20134;-63
2023/06/07 09:46:59;;;;;;;2.90;1.70;;;;;;;31.33;41.01;98052.59;4958903;28;20057;-63
2023/06/07 09:49:34;;;;;;;;;;;;;;;31.37;39.61;98047.22;4975117;28;20054;-65
2023/06/07 09:52:11;;;;;;;4.15;1.63;;;;;;;31.34;41.37;98037.75;4971983;28;19929;-64
2023/06/07 09:54:45;;;;;;;5.00;2.00;;;;;;;31.27;40.76;98036.75;4954589;28;20070;-63
2023/06/07 09:57:26;;;;;;;4.47;1.92;;;;;;;31.29;39.21;98037.22;4966074;28;20054;-64
2023/06/07 10:02:43;;;;;;;3.85;2.30;;;;;;;31.21;41.15;98015.06;4965450;28;20039;-65
2023/06/07 10:05:29;;;;;;;3.70;2.35;;;;;;;31.20;41.72;98008.00;4964562;28;20101;-63
2023/06/07 10:07:59;;;;;;;3.20;2.30;;;;;;;30.56;45.08;97996.94;4957008;28;20046;-64
2023/06/07 10:10:29;;;;;;;2.75;2.33;;;;;;;30.07;47.74;97996.00;4967276;28;20623;-65
2023/06/07 10:13:03;;;;;;;3.72;2.60;;;;;;;29.83;46.79;97993.16;4951860;28;20430;-64
2023/06/07 10:15:34;;;;;;;9.52;3.60;;;;;;;29.64;46.64;97993.66;4958189;28;20058;-66
2023/06/07 10:18:17;;;;;;;6.63;3.78;;;;;;;29.41;46.18;97990.47;4956509;28;20050;-65
2023/06/07 10:20:52;;;;;;;;;;;;;;;29.51;46.50;97989.28;4967622;28;20138;-65
2023/06/07 10:23:35;;;;;;;7.07;3.30;;;;;;;29.30;48.06;97983.00;4966727;28;19941;-64
2023/06/07 10:26:30;;;;;;;8.45;4.93;;;;;;;29.34;46.82;97975.75;4963206;28;20379;-68
2023/06/07 10:29:17;;;;;;;6.90;4.00;;;;;;;29.27;47.93;97978.19;4966135;28;20054;-66
2023/06/07 10:32:01;;;;;;;8.60;3.47;;;;;;;29.15;49.66;97978.91;4951534;28;20079;-65
2023/06/07 10:34:32;;;;;;;4.80;3.10;;;;;;;29.23;48.33;97977.25;4964853;28;20054;-64
2023/06/07 10:37:07;;;;;;;3.95;2.70;;;;;;;29.24;48.75;97968.75;4971432;28;20042;-65
2023/06/07 10:39:38;;;;;;;8.77;3.53;;;;;;;29.21;49.48;97963.16;4963700;28;20047;-65
2023/06/07 10:42:20;;;;;;;5.90;3.53;;;;;;;29.15;49.64;97959.00;4967579;28;20050;-60
2023/06/07 10:44:50;;;;;;;4.72;2.40;;;;;;;29.07;49.29;97959.88;4966303;28;20042;-64
2023/06/07 10:47:54;;;;;;;3.80;2.25;;;;;;;29.11;50.00;97956.16;4947535;28;20038;-64
2023/06/07 10:50:27;;;;;;;6.03;2.17;;;;;;;29.13;49.86;97953.06;4966173;28;20372;-64
2023/06/07 10:52:59;;;;;;;6.15;2.10;;;;;;;29.11;47.38;97952.63;4966063;28;20057;-64
2023/06/07 10:55:31;;;;;;;3.72;1.65;;;;;;;29.00;49.12;97944.81;4965656;28;20046;-64
2023/06/07 10:58:01;;;;;;;3.67;2.53;;;;;;;29.11;49.31;97944.44;4971895;28;20104;-63
2023/06/07 11:00:33;;;;;;;4.95;2.47;;;;;;;29.06;49.85;97940.00;4972760;28;20498;-62
2023/06/07 11:03:10;;;;;;;4.03;2.20;;;;;;;29.19;48.37;97943.59;4972178;28;20669;-66
2023/06/07 11:05:58;;;;;;;3.42;1.48;;;;;;;29.08;48.96;97936.94;4972701;28;20054;-64
2023/06/07 11:08:32;;;;;;;2.47;1.30;;;;;;;29.13;47.12;97942.97;4971876;28;20141;-65
2023/06/07 11:11:03;;;;;;;1.63;1.10;;;;;;;29.20;47.38;97935.06;4972824;28;20066;-64
2023/06/07 11:13:44;;;;;;;5.65;1.50;;;;;;;29.16;48.01;97941.53;4971752;28;20051;-64
2023/06/07 11:16:23;;;;;;;3.28;1.77;;;;;;;29.31;46.94;97938.22;4978325;28;20053;-66
2023/06/07 11:19:03;;;;;;;6.07;1.52;;;;;;;29.42;47.00;97937.50;4960569;28;20097;-65
2023/06/07 11:22:04;;;;;;;4.95;1.65;;;;;;;29.42;47.36;97915.66;4968239;28;20070;-67
2023/06/07 11:24:36;;;;;;;2.63;1.30;;;;;;;29.36;48.05;97924.38;4971503;28;20189;-67
2023/06/07 11:27:10;;;;;;;2.65;1.45;;;;;;;29.34;48.84;97926.66;4962866;28;20081;-66
2023/06/07 11:29:42;;;;;;;1.98;1.20;;;;;;;29.28;48.79;97926.03;4949124;28;20534;-65
2023/06/07 11:32:12;;;;;;;2.25;1.45;;;;;;;29.23;48.66;97925.41;4971029;28;20047;-65
2023/06/07 11:34:54;;;;;;;4.65;1.20;;;;;;;29.23;48.57;97917.22;4965510;28;20047;-63
2023/06/07 11:37:24;;;;;;;4.05;1.17;;;;;;;29.22;47.57;97918.34;4972584;28;20058;-61
2023/06/07 11:39:59;;;;;;;3.88;1.20;;;;;;;29.24;48.43;97916.91;4972580;28;20043;-65
2023/06/07 11:42:31;;;;;;;6.18;1.70;;;;;;;29.17;48.40;97919.34;4971932;28;20050;-63
2023/06/07 11:45:00;;;;;;;3.28;1.40;;;;;;;29.24;48.83;97916.91;4969052;28;20046;-65
2023/06/07 11:47:29;;;;;;;3.42;1.40;;;;;;;29.34;48.09;97913.78;4972339;28;20070;-64
2023/06/07 11:49:59;;;;;;;4.63;1.45;;;;;;;29.40;47.18;97907.00;4972240;28;20050;-64
2023/06/07 11:52:29;;;;;;;5.57;1.52;;;;;;;29.09;49.83;97914.78;4971683;28;20063;-63
2023/06/07 11:55:00;;;;;;;4.75;1.83;;;;;;;28.95;49.52;97903.31;4966614;28;20050;-64